Time;durP1;ratioP1;P1;durP2;ratioP2;P2;SDS_P1;SDS_P2;PMS_P1;PMS_P2;Temp;Humidity;BMP_temperature;BMP_pressure;BME280_temperature;BME280_humidity;BME280_pressure;Samples;Min_cycle;Max_cycle;Signal;HPM_P1;HPM_P2
2023/08/11 00:01:04;;;;;;;8.32;3.90;;;12.50;75.50;;;;;;5056229;28;20456;-88
2023/08/11 00:03:32;;;;;;;9.53;3.47;;;12.50;75.60;;;;;;5040046;28;20048;-88
2023/08/11 00:05:59;;;;;;;7.35;3.65;;;12.50;75.70;;;;;;5056257;28;20419;-88
2023/08/11 00:08:26;;;;;;;8.10;3.70;;;12.50;75.70;;;;;;5056075;28;20049;-88
2023/08/11 00:10:53;;;;;;;9.65;3.72;;;12.50;75.70;;;;;;5056116;28;20049;-88
2023/08/11 00:13:20;;;;;;;7.57;3.42;;;12.60;75.60;;;;;;5061859;28;20044;-88
2023/08/11 00:15:48;;;;;;;8.17;3.53;;;12.60;75.30;;;;;;5059574;28;20068;-88
2023/08/11 00:18:15;;;;;;;9.02;3.70;;;12.60;75.30;;;;;;5059584;28;20094;-88
2023/08/11 00:20:42;;;;;;;11.68;3.85;;;12.60;75.40;;;;;;5059293;28;20056;-89
2023/08/11 00:23:09;;;;;;;8.35;3.38;;;12.50;75.70;;;;;;5059635;28;20053;-89
2023/08/11 00:25:37;;;;;;;8.57;4.20;;;12.50;75.90;;;;;;5059283;28;20087;-88
2023/08/11 00:28:04;;;;;;;11.27;4.53;;;12.40;76.00;;;;;;5076045;28;20051;-89
2023/08/11 00:30:31;;;;;;;13.30;4.07;;;12.30;76.20;;;;;;5059602;28;20490;-89
2023/08/11 00:32:58;;;;;;;8.20;3.90;;;12.30;76.20;;;;;;5059368;28;20135;-89
2023/08/11 00:35:26;;;;;;;7.88;4.05;;;12.30;76.30;;;;;;5059701;28;20524;-89
2023/08/11 00:37:53;;;;;;;10.70;3.72;;;12.40;76.20;;;;;;5059241;28;20045;-88
2023/08/11 00:40:20;;;;;;;8.47;4.30;;;12.40;76.10;;;;;;5058532;28;20037;-88
2023/08/11 00:42:49;;;;;;;11.80;4.38;;;12.40;76.20;;;;;;5059442;28;20037;-88
2023/08/11 00:45:16;;;;;;;9.32;4.57;;;12.30;76.10;;;;;;5058861;28;20551;-88
2023/08/11 00:47:45;;;;;;;8.88;4.30;;;12.30;76.20;;;;;;5075473;28;20075;-88
2023/08/11 00:50:15;;;;;;;11.45;3.85;;;12.30;76.20;;;;;;5058580;28;20048;-88
2023/08/11 00:52:45;;;;;;;9.43;4.47;;;12.20;76.40;;;;;;5075439;28;20041;-88
2023/08/11 00:55:13;;;;;;;8.60;4.07;;;12.20;76.50;;;;;;5058997;28;20051;-89
2023/08/11 00:57:42;;;;;;;8.93;4.15;;;12.20;76.50;;;;;;5059306;28;20041;-89
2023/08/11 01:00:13;;;;;;;9.30;4.03;;;12.20;76.40;;;;;;5059301;28;20051;-88
2023/08/11 01:02:42;;;;;;;9.90;4.60;;;12.20;76.40;;;;;;5059233;28;20122;-89
2023/08/11 01:05:12;;;;;;;8.43;3.90;;;12.20;76.40;;;;;;5059189;28;20079;-89
2023/08/11 01:08:08;;;;;;;8.48;4.53;;;12.20;76.50;;;;;;5059219;28;20063;-89
2023/08/11 01:10:58;;;;;;;8.25;3.88;;;12.20;76.60;;;;;;5058821;28;20052;-89
2023/08/11 01:13:28;;;;;;;8.95;4.18;;;12.20;76.70;;;;;;5059144;28;20148;-90
2023/08/11 01:16:00;;;;;;;9.40;4.55;;;12.10;76.70;;;;;;5059226;28;20040;-90
2023/08/11 01:18:28;;;;;;;9.50;4.27;;;12.10;76.90;;;;;;5058851;28;20131;-89
2023/08/11 01:21:01;;;;;;;9.30;4.35;;;12.20;76.80;;;;;;5058786;28;20059;-89
2023/08/11 01:23:31;;;;;;;8.75;4.28;;;12.10;76.80;;;;;;5059121;28;20045;-89
2023/08/11 01:25:59;;;;;;;10.95;4.50;;;12.10;76.90;;;;;;5058540;28;20045;-89
2023/08/11 01:28:27;;;;;;;10.38;4.53;;;12.10;76.90;;;;;;5075477;28;20063;-89
2023/08/11 01:30:54;;;;;;;9.03;4.70;;;12.10;76.90;;;;;;5058795;28;20494;-89
2023/08/11 01:33:21;;;;;;;10.70;4.80;;;12.10;76.90;;;;;;5058764;28;20056;-88
2023/08/11 01:35:48;;;;;;;9.93;5.00;;;12.10;76.70;;;;;;5075063;28;20052;-89
2023/08/11 01:38:15;;;;;;;9.88;4.90;;;12.10;76.70;;;;;;5058791;28;20497;-89
2023/08/11 01:40:42;;;;;;;9.98;5.00;;;12.10;77.00;;;;;;5058645;28;20052;-89
2023/08/11 01:43:12;;;;;;;9.57;4.40;;;12.10;77.00;;;;;;5058607;28;20501;-89
2023/08/11 01:45:40;;;;;;;8.60;4.57;;;12.10;76.90;;;;;;5058223;28;20075;-89
2023/08/11 01:48:10;;;;;;;8.90;4.70;;;12.20;76.70;;;;;;5058442;28;20060;-89
2023/08/11 01:50:38;;;;;;;10.10;4.43;;;12.20;76.70;;;;;;5058022;28;20045;-89
2023/08/11 01:53:05;;;;;;;8.45;4.63;;;12.20;76.70;;;;;;5057668;28;20040;-88
2023/08/11 01:55:33;;;;;;;8.87;5.27;;;12.20;76.50;;;;;;5058129;28;20041;-89
2023/08/11 01:58:00;;;;;;;10.07;4.97;;;12.20;76.60;;;;;;5057985;28;20497;-89
2023/08/11 02:00:28;;;;;;;10.95;5.45;;;12.10;76.80;;;;;;5058130;28;20051;-89
2023/08/11 02:02:56;;;;;;;11.52;5.45;;;12.20;76.90;;;;;;5057964;28;20052;-89
2023/08/11 02:05:24;;;;;;;9.55;5.18;;;12.20;76.80;;;;;;5074101;28;20497;-89
2023/08/11 02:07:53;;;;;;;8.40;4.77;;;12.10;76.70;;;;;;5073967;28;20056;-90
2023/08/11 02:10:20;;;;;;;8.43;4.95;;;12.10;76.80;;;;;;5057542;28;20486;-89
2023/08/11 02:12:49;;;;;;;10.35;5.03;;;12.20;76.80;;;;;;5074111;28;20040;-89
2023/08/11 02:15:16;;;;;;;13.27;4.65;;;12.10;77.00;;;;;;5057640;28;20049;-89
2023/08/11 02:17:44;;;;;;;9.02;4.65;;;12.20;76.60;;;;;;5057924;28;20045;-89
2023/08/11 02:20:23;;;;;;;10.67;5.27;;;12.20;76.40;;;;;;5057785;28;20098;-89
2023/08/11 02:22:52;;;;;;;10.35;4.93;;;12.10;76.80;;;;;;5058076;28;20048;-89
2023/08/11 02:25:20;;;;;;;8.13;4.53;;;12.00;77.00;;;;;;5057629;28;20445;-89
2023/08/11 02:27:47;;;;;;;9.07;4.68;;;12.00;77.10;;;;;;5047704;28;20060;-89
2023/08/11 02:30:14;;;;;;;8.77;4.80;;;12.00;77.30;;;;;;5053739;28;20394;-89
2023/08/11 02:32:42;;;;;;;9.60;5.13;;;12.00;77.30;;;;;;5053806;28;20048;-88
2023/08/11 02:35:12;;;;;;;9.27;4.65;;;12.00;77.40;;;;;;5053566;28;20055;-89
2023/08/11 02:37:41;;;;;;;9.40;4.75;;;11.90;77.30;;;;;;5053292;28;20503;-89
2023/08/11 02:40:09;;;;;;;10.00;5.18;;;11.90;77.50;;;;;;5053565;28;20055;-88
2023/08/11 02:42:45;;;;;;;8.88;4.45;;;11.90;77.40;;;;;;5053458;28;20049;-89
2023/08/11 02:45:12;;;;;;;9.40;4.73;;;11.80;77.50;;;;;;5037288;28;20045;-88
2023/08/11 02:47:40;;;;;;;10.65;5.05;;;11.70;77.80;;;;;;5053918;28;20049;-88
2023/08/11 02:50:08;;;;;;;9.73;5.10;;;11.70;77.90;;;;;;5053209;28;20040;-89
2023/08/11 02:52:36;;;;;;;9.95;4.60;;;11.80;77.90;;;;;;5036892;28;20095;-89
2023/08/11 02:55:04;;;;;;;8.70;5.00;;;11.70;77.70;;;;;;5053341;28;20045;-89
2023/08/11 02:57:33;;;;;;;9.07;5.17;;;11.70;77.90;;;;;;5036845;28;20132;-89
2023/08/11 03:00:01;;;;;;;9.93;5.30;;;11.60;77.90;;;;;;5053254;28;20049;-89
2023/08/11 03:02:28;;;;;;;9.13;5.22;;;11.60;77.90;;;;;;5053421;28;20037;-88
2023/08/11 03:04:55;;;;;;;8.63;4.47;;;11.70;78.00;;;;;;5053533;28;20051;-87
2023/08/11 03:07:23;;;;;;;10.82;5.45;;;11.60;78.10;;;;;;5053171;28;20059;-88
2023/08/11 03:09:50;;;;;;;10.40;5.40;;;11.50;78.20;;;;;;5036801;28;20044;-87
2023/08/11 03:12:17;;;;;;;12.23;5.10;;;11.50;78.30;;;;;;5036974;28;20045;-89
2023/08/11 03:14:44;;;;;;;10.90;5.00;;;11.50;78.40;;;;;;5053517;28;20041;-88
2023/08/11 03:17:13;;;;;;;9.50;5.20;;;11.50;78.40;;;;;;5053308;28;20064;-88
2023/08/11 03:19:41;;;;;;;9.80;5.22;;;11.50;78.50;;;;;;5053284;28;20044;-88
2023/08/11 03:22:08;;;;;;;11.63;4.63;;;11.50;78.60;;;;;;5037365;28;20538;-89
2023/08/11 03:24:36;;;;;;;9.10;4.47;;;11.50;78.50;;;;;;5053506;28;20051;-88
2023/08/11 03:27:03;;;;;;;9.20;5.05;;;11.50;78.20;;;;;;5037085;28;20048;-89
2023/08/11 03:29:31;;;;;;;9.73;5.10;;;11.50;78.30;;;;;;5053556;28;20056;-89
2023/08/11 03:31:59;;;;;;;9.45;4.90;;;11.50;78.20;;;;;;5053881;28;20033;-89
2023/08/11 03:34:28;;;;;;;9.93;4.57;;;11.60;78.10;;;;;;5053624;28;20128;-89
2023/08/11 03:36:55;;;;;;;12.30;4.97;;;11.60;78.00;;;;;;5053275;28;20556;-89
2023/08/11 03:39:22;;;;;;;12.23;5.80;;;11.60;77.70;;;;;;5053317;28;20045;-89
2023/08/11 03:41:51;;;;;;;8.55;5.28;;;11.60;78.00;;;;;;5036766;28;20041;-88
2023/08/11 03:44:20;;;;;;;10.90;5.63;;;11.50;78.10;;;;;;5059606;28;20047;-89
2023/08/11 03:46:48;;;;;;;11.10;5.47;;;11.50;78.10;;;;;;5050929;28;20049;-88
2023/08/11 03:49:17;;;;;;;8.88;5.32;;;11.50;78.40;;;;;;5050951;28;20049;-88
2023/08/11 03:51:44;;;;;;;9.02;5.63;;;11.50;78.50;;;;;;5047955;28;20041;-89
2023/08/11 03:54:11;;;;;;;10.25;5.60;;;11.50;78.30;;;;;;5036904;28;20034;-88
2023/08/11 03:56:39;;;;;;;9.75;5.45;;;11.50;78.40;;;;;;5066650;28;20064;-89
2023/08/11 03:59:07;;;;;;;8.23;4.37;;;11.50;78.30;;;;;;5064054;28;20053;-89
2023/08/11 04:01:34;;;;;;;8.35;5.30;;;11.50;78.20;;;;;;5053735;28;20577;-89
2023/08/11 04:04:02;;;;;;;9.93;5.05;;;11.50;78.40;;;;;;5040996;28;20068;-89
2023/08/11 04:06:32;;;;;;;11.40;5.30;;;11.50;78.70;;;;;;5053057;28;20130;-89
2023/08/11 04:09:01;;;;;;;9.38;5.03;;;11.50;78.60;;;;;;5053259;28;20040;-89
2023/08/11 04:11:32;;;;;;;11.77;5.60;;;11.50;78.70;;;;;;5053246;28;20110;-90
2023/08/11 04:14:03;;;;;;;8.23;4.90;;;11.50;78.60;;;;;;5053129;28;20048;-89
2023/08/11 04:16:30;;;;;;;8.68;5.05;;;11.50;78.60;;;;;;5056399;28;20045;-89
2023/08/11 04:18:57;;;;;;;8.88;4.70;;;11.50;78.60;;;;;;5056703;28;20045;-89
2023/08/11 04:21:24;;;;;;;9.45;5.38;;;11.50;78.60;;;;;;5056656;28;20052;-89
2023/08/11 04:23:51;;;;;;;8.33;4.77;;;11.50;78.80;;;;;;5056417;28;20048;-89
2023/08/11 04:26:19;;;;;;;8.68;5.38;;;11.50;78.50;;;;;;5056634;28;20411;-89
2023/08/11 04:28:46;;;;;;;8.65;4.78;;;11.60;78.50;;;;;;5056577;28;20044;-89
2023/08/11 04:31:15;;;;;;;9.68;5.15;;;11.50;78.20;;;;;;5061434;28;20387;-89
2023/08/11 04:33:42;;;;;;;9.25;4.95;;;11.50;78.40;;;;;;5039472;28;20041;-89
2023/08/11 04:36:10;;;;;;;8.57;4.57;;;11.50;78.40;;;;;;5055648;28;20414;-90
2023/08/11 04:38:38;;;;;;;9.15;5.00;;;11.50;78.30;;;;;;5055741;28;20572;-89
2023/08/11 04:41:07;;;;;;;8.23;4.90;;;11.60;78.40;;;;;;5055591;28;20049;-90
2023/08/11 04:43:34;;;;;;;7.95;4.68;;;11.60;78.10;;;;;;5039319;28;20091;-90
2023/08/11 04:46:03;;;;;;;12.90;5.10;;;11.60;78.00;;;;;;5065215;28;20493;-89
2023/08/11 04:48:32;;;;;;;8.53;4.90;;;11.60;78.10;;;;;;5075902;28;20055;-89
2023/08/11 04:50:59;;;;;;;11.85;5.30;;;11.70;78.30;;;;;;5039264;28;20041;-89
2023/08/11 04:53:26;;;;;;;9.52;5.30;;;11.70;78.10;;;;;;5055451;28;20059;-90
2023/08/11 04:55:53;;;;;;;8.52;5.03;;;11.70;78.00;;;;;;5039071;28;20091;-90
2023/08/11 04:58:21;;;;;;;8.60;4.57;;;11.70;77.90;;;;;;5038761;28;20047;-89
2023/08/11 05:00:48;;;;;;;11.33;4.73;;;11.90;78.10;;;;;;5055576;28;20049;-90
2023/08/11 05:03:16;;;;;;;7.30;4.03;;;12.00;77.50;;;;;;5045336;28;20063;-89
2023/08/11 05:05:44;;;;;;;7.88;4.20;;;12.00;77.50;;;;;;5058780;28;20048;-89
2023/08/11 05:08:12;;;;;;;10.30;4.65;;;12.10;77.20;;;;;;5048017;28;20053;-89
2023/08/11 05:10:39;;;;;;;9.45;4.50;;;12.20;77.00;;;;;;5054972;28;20041;-90
2023/08/11 05:13:06;;;;;;;7.47;4.37;;;12.30;76.70;;;;;;5038592;28;20041;-89
2023/08/11 05:15:33;;;;;;;8.85;4.63;;;12.40;76.60;;;;;;5055355;28;20105;-90
2023/08/11 05:18:01;;;;;;;9.93;4.20;;;12.50;76.50;;;;;;5055098;28;20117;-89
2023/08/11 05:20:29;;;;;;;8.30;4.70;;;12.60;76.20;;;;;;5055114;28;20045;-89
2023/08/11 05:22:56;;;;;;;8.23;4.30;;;12.70;75.90;;;;;;5054790;28;20049;-90
2023/08/11 05:25:23;;;;;;;7.37;4.23;;;12.90;75.50;;;;;;5054148;28;20090;-89
2023/08/11 05:27:50;;;;;;;9.18;4.25;;;13.00;75.50;;;;;;5058315;28;20055;-90
2023/08/11 05:30:18;;;;;;;7.38;3.78;;;13.10;75.20;;;;;;5058352;28;20071;-89
2023/08/11 05:32:45;;;;;;;7.72;3.97;;;13.30;74.40;;;;;;5050992;28;20033;-89
2023/08/11 05:35:12;;;;;;;8.65;4.45;;;13.40;74.20;;;;;;5054762;28;20487;-89
2023/08/11 05:37:41;;;;;;;11.47;4.20;;;13.50;74.10;;;;;;5038892;28;20037;-89
2023/08/11 05:40:09;;;;;;;8.90;4.65;;;13.60;73.40;;;;;;5073421;28;20494;-89
2023/08/11 05:42:36;;;;;;;8.90;4.45;;;13.70;73.30;;;;;;5047461;28;20132;-89
2023/08/11 05:45:04;;;;;;;7.95;3.88;;;13.80;73.50;;;;;;5054881;28;20096;-89
2023/08/11 05:47:31;;;;;;;7.38;4.35;;;14.00;73.10;;;;;;5054812;28;20045;-89
2023/08/11 05:49:58;;;;;;;7.93;3.90;;;14.10;73.20;;;;;;5038384;28;20053;-89
2023/08/11 05:52:25;;;;;;;6.82;3.90;;;14.30;72.30;;;;;;5043600;28;20041;-89
2023/08/11 05:54:52;;;;;;;6.78;3.55;;;14.50;71.80;;;;;;5051570;28;20041;-89
2023/08/11 05:57:19;;;;;;;7.45;4.03;;;14.60;71.60;;;;;;5058055;28;20044;-89
2023/08/11 05:59:46;;;;;;;9.05;4.10;;;14.70;71.40;;;;;;5057600;28;20064;-90
2023/08/11 06:02:13;;;;;;;7.23;3.80;;;14.90;71.70;;;;;;5038190;28;20136;-90
2023/08/11 06:04:44;;;;;;;8.32;4.40;;;15.00;70.50;;;;;;5054612;28;20095;-90
2023/08/11 06:07:11;;;;;;;9.80;4.38;;;15.10;70.60;;;;;;5054462;28;20064;-89
2023/08/11 06:09:39;;;;;;;8.75;4.40;;;15.20;69.90;;;;;;5066345;28;20514;-89
2023/08/11 06:12:06;;;;;;;7.78;4.18;;;15.30;69.10;;;;;;5057810;28;20494;-90
2023/08/11 06:14:33;;;;;;;6.60;3.50;;;15.40;69.40;;;;;;5057962;28;20136;-90
2023/08/11 06:17:00;;;;;;;7.07;4.15;;;15.50;69.50;;;;;;5057910;28;20045;-89
2023/08/11 06:19:27;;;;;;;7.18;3.83;;;15.60;68.90;;;;;;5049860;28;20041;-89
2023/08/11 06:21:55;;;;;;;9.88;3.92;;;15.80;69.30;;;;;;5063899;28;20128;-90
2023/08/11 06:24:23;;;;;;;8.75;4.35;;;16.00;69.30;;;;;;5040035;28;20064;-90
2023/08/11 06:26:54;;;;;;;7.97;4.20;;;16.10;68.60;;;;;;5064056;28;20147;-89
2023/08/11 06:29:21;;;;;;;8.35;3.80;;;16.20;69.30;;;;;;5050484;28;20099;-89
2023/08/11 06:31:48;;;;;;;10.55;3.70;;;16.50;68.20;;;;;;5053738;28;20041;-89
2023/08/11 06:34:17;;;;;;;8.10;3.80;;;16.60;68.00;;;;;;5065102;28;20044;-89
2023/08/11 06:36:48;;;;;;;6.72;3.97;;;16.70;67.30;;;;;;5057485;28;20045;-90
2023/08/11 06:39:15;;;;;;;9.07;4.00;;;16.80;67.80;;;;;;5049401;28;20047;-89
2023/08/11 06:41:42;;;;;;;7.32;3.65;;;17.00;68.10;;;;;;5057942;28;20049;-89
2023/08/11 06:44:09;;;;;;;8.73;4.32;;;17.10;66.60;;;;;;5053975;28;20216;-89
2023/08/11 06:46:36;;;;;;;7.55;3.85;;;17.20;67.00;;;;;;5037237;28;20559;-89
2023/08/11 06:49:04;;;;;;;7.93;3.78;;;17.40;67.20;;;;;;5047564;28;20136;-89
2023/08/11 06:51:31;;;;;;;7.87;3.77;;;17.50;66.20;;;;;;5053177;28;20045;-89
2023/08/11 06:53:58;;;;;;;10.02;4.22;;;17.60;65.20;;;;;;5060711;28;20052;-89
2023/08/11 06:56:25;;;;;;;9.23;3.90;;;17.70;66.00;;;;;;5037289;28;20099;-90
2023/08/11 06:58:52;;;;;;;8.02;4.10;;;17.90;65.20;;;;;;5053892;28;20041;-89
2023/08/11 07:01:19;;;;;;;7.72;3.85;;;18.00;66.00;;;;;;5054573;28;20055;-89
2023/08/11 07:03:47;;;;;;;9.10;3.87;;;18.20;65.10;;;;;;5052744;28;20053;-89
2023/08/11 07:06:14;;;;;;;8.80;4.43;;;18.30;63.10;;;;;;5072895;28;20045;-88
2023/08/11 07:08:42;;;;;;;7.43;3.75;;;18.30;63.90;;;;;;5051397;28;20406;-89
2023/08/11 07:11:09;;;;;;;6.35;3.17;;;18.40;63.10;;;;;;5042141;28;20053;-90
2023/08/11 07:13:36;;;;;;;7.80;4.22;;;18.50;63.60;;;;;;5054032;28;20045;-90
2023/08/11 07:16:03;;;;;;;9.57;4.10;;;18.60;62.80;;;;;;5069861;28;20033;-89
2023/08/11 07:18:30;;;;;;;9.40;3.97;;;18.80;64.10;;;;;;5052849;28;20045;-89
2023/08/11 07:20:57;;;;;;;6.93;3.83;;;19.00;63.80;;;;;;5052928;28;20041;-89
2023/08/11 07:23:25;;;;;;;7.75;3.80;;;19.10;62.70;;;;;;5055738;28;20511;-88
2023/08/11 07:25:52;;;;;;;8.75;3.58;;;19.20;62.50;;;;;;5055319;28;20143;-89
2023/08/11 07:28:19;;;;;;;8.47;3.77;;;19.40;62.10;;;;;;5069986;28;20200;-89
2023/08/11 07:30:46;;;;;;;9.27;3.75;;;19.50;60.80;;;;;;5039643;28;20045;-90
2023/08/11 07:33:13;;;;;;;7.85;3.53;;;19.60;61.20;;;;;;5071285;28;20049;-89
2023/08/11 07:35:41;;;;;;;6.88;4.10;;;19.70;59.60;;;;;;5042021;28;20044;-89
2023/08/11 07:38:08;;;;;;;9.45;4.10;;;19.80;59.90;;;;;;5064568;28;20044;-89
2023/08/11 07:40:39;;;;;;;8.70;4.23;;;20.00;59.50;;;;;;5052151;28;20044;-89
2023/08/11 07:43:06;;;;;;;9.57;4.22;;;20.10;59.90;;;;;;5042412;28;20045;-89
2023/08/11 07:45:33;;;;;;;8.23;4.18;;;20.10;58.60;;;;;;5049117;28;20049;-90
2023/08/11 07:48:01;;;;;;;10.38;4.57;;;20.30;58.60;;;;;;5061143;28;20567;-89
2023/08/11 07:50:28;;;;;;;6.93;3.67;;;20.40;58.90;;;;;;5052009;28;20105;-89
2023/08/11 07:52:55;;;;;;;7.77;3.13;;;20.50;56.00;;;;;;5059094;28;20051;-90
2023/08/11 07:55:23;;;;;;;9.02;2.90;;;20.60;54.80;;;;;;5074513;28;20098;-89
2023/08/11 07:57:50;;;;;;;6.50;2.85;;;20.80;53.50;;;;;;5059727;28;20044;-89
2023/08/11 08:00:21;;;;;;;9.60;3.38;;;20.90;55.60;;;;;;5051832;28;20491;-89
2023/08/11 08:02:48;;;;;;;9.48;2.90;;;21.00;54.20;;;;;;5056203;28;20049;-89
2023/08/11 08:05:16;;;;;;;9.53;2.93;;;21.10;51.60;;;;;;5066874;28;20410;-89
2023/08/11 08:07:43;;;;;;;7.00;2.38;;;21.20;52.30;;;;;;5045772;28;20053;-89
2023/08/11 08:10:11;;;;;;;5.75;2.47;;;21.20;50.90;;;;;;5061970;28;20041;-89
2023/08/11 08:12:39;;;;;;;5.93;2.70;;;21.30;51.00;;;;;;5053528;28;20053;-89
2023/08/11 08:15:09;;;;;;;8.43;3.30;;;21.40;50.10;;;;;;5043374;28;20041;-89
2023/08/11 08:17:37;;;;;;;7.30;2.80;;;21.50;52.50;;;;;;5067032;28;20437;-89
2023/08/11 08:20:08;;;;;;;7.13;2.50;;;21.60;52.70;;;;;;5065511;28;20041;-89
2023/08/11 08:22:36;;;;;;;5.50;2.30;;;21.70;51.40;;;;;;5051399;28;20044;-89
2023/08/11 08:25:07;;;;;;;5.57;1.98;;;21.80;51.30;;;;;;5053134;28;20073;-89
2023/08/11 08:27:35;;;;;;;4.97;2.30;;;21.90;48.60;;;;;;5073771;28;20040;-89
2023/08/11 08:30:03;;;;;;;6.67;2.30;;;21.90;48.90;;;;;;5042597;28;20048;-89
2023/08/11 08:32:32;;;;;;;5.53;2.22;;;21.90;48.90;;;;;;5061574;28;20577;-89
2023/08/11 08:34:59;;;;;;;6.38;3.20;;;22.10;50.20;;;;;;5047803;28;20049;-89
2023/08/11 08:37:28;;;;;;;6.07;2.95;;;22.10;51.20;;;;;;5068811;28;20086;-89
2023/08/11 08:39:55;;;;;;;6.00;2.90;;;22.20;52.70;;;;;;5044630;28;20089;-89
2023/08/11 08:42:24;;;;;;;3.93;1.93;;;22.20;51.90;;;;;;5044064;28;20044;-89
2023/08/11 08:44:53;;;;;;;5.28;2.10;;;22.20;46.20;;;;;;5064126;28;20041;-89
2023/08/11 08:47:24;;;;;;;5.93;2.28;;;22.10;46.10;;;;;;5046431;28;20064;-89
2023/08/11 08:49:52;;;;;;;5.43;2.38;;;22.20;49.00;;;;;;5075056;28;20135;-88
2023/08/11 08:52:20;;;;;;;5.53;2.40;;;22.40;48.80;;;;;;5071014;28;20513;-88
2023/08/11 08:54:48;;;;;;;7.23;2.50;;;22.40;45.20;;;;;;5050584;28;20052;-89
2023/08/11 08:57:15;;;;;;;5.05;1.77;;;22.50;46.10;;;;;;5056824;28;20044;-89
2023/08/11 08:59:43;;;;;;;5.03;2.35;;;22.40;47.50;;;;;;5067997;28;20077;-89
2023/08/11 09:02:12;;;;;;;5.38;2.13;;;22.50;48.80;;;;;;5068038;28;20087;-89
2023/08/11 09:04:41;;;;;;;9.95;2.70;;;22.60;48.50;;;;;;5053350;28;20098;-89
2023/08/11 09:07:09;;;;;;;6.63;2.53;;;22.60;47.50;;;;;;5054644;28;20091;-89
2023/08/11 09:09:37;;;;;;;5.95;2.28;;;22.60;45.80;;;;;;5058841;28;20067;-89
2023/08/11 09:12:04;;;;;;;9.93;2.35;;;22.60;46.40;;;;;;5058708;28;20045;-89
2023/08/11 09:14:32;;;;;;;4.75;1.92;;;22.60;44.40;;;;;;5042979;28;20041;-88
2023/08/11 09:17:02;;;;;;;4.82;2.53;;;22.70;45.60;;;;;;5055356;28;20452;-89
2023/08/11 09:19:29;;;;;;;5.47;2.50;;;22.70;46.30;;;;;;5056580;28;20077;-89
2023/08/11 09:21:56;;;;;;;4.60;2.40;;;22.80;45.70;;;;;;5073533;28;20047;-89
2023/08/11 09:24:24;;;;;;;5.50;2.30;;;22.90;46.70;;;;;;5050350;28;20076;-89
2023/08/11 09:26:51;;;;;;;4.65;2.10;;;22.90;46.20;;;;;;5062260;28;20045;-89
2023/08/11 09:29:19;;;;;;;5.80;2.13;;;23.00;47.60;;;;;;5051202;28;20048;-89
2023/08/11 09:31:49;;;;;;;7.23;2.03;;;23.10;45.20;;;;;;5057832;28;20052;-89
2023/08/11 09:34:18;;;;;;;4.13;1.75;;;23.20;45.50;;;;;;5049391;28;20048;-89
2023/08/11 09:36:49;;;;;;;8.15;2.05;;;23.20;46.30;;;;;;5053738;28;20165;-89
2023/08/11 09:39:17;;;;;;;4.28;1.90;;;23.30;45.20;;;;;;5018497;28;20056;-89
2023/08/11 09:41:48;;;;;;;4.95;1.92;;;23.30;46.00;;;;;;5052815;28;20086;-88
2023/08/11 09:44:17;;;;;;;6.67;1.90;;;23.40;44.40;;;;;;5061216;28;20036;-89
2023/08/11 09:46:46;;;;;;;3.90;2.00;;;23.50;45.40;;;;;;5050861;28;20131;-89
2023/08/11 09:49:14;;;;;;;3.58;1.58;;;23.50;43.10;;;;;;5055665;28;20071;-89
2023/08/11 09:51:42;;;;;;;4.78;2.20;;;23.60;43.00;;;;;;5052979;28;20041;-88
2023/08/11 09:54:10;;;;;;;4.03;1.17;;;23.50;41.30;;;;;;5045695;28;20079;-89
2023/08/11 09:56:40;;;;;;;5.07;1.20;;;23.50;41.20;;;;;;5042515;28;20045;-88
2023/08/11 09:59:16;;;;;;;5.65;1.30;;;23.10;40.50;;;;;;5056038;28;20114;-88
2023/08/11 10:01:44;;;;;;;8.25;1.50;;;23.10;42.20;;;;;;5066511;28;20450;-89
2023/08/11 10:04:22;;;;;;;4.00;1.27;;;23.20;43.10;;;;;;5037307;28;20041;-88
2023/08/11 10:06:53;;;;;;;4.63;1.27;;;23.40;47.10;;;;;;5054150;28;20131;-89
2023/08/11 10:09:23;;;;;;;4.43;1.10;;;23.50;44.50;;;;;;5053570;28;20596;-88
2023/08/11 10:11:52;;;;;;;4.30;1.08;;;23.60;43.10;;;;;;5053609;28;20095;-89
2023/08/11 10:14:20;;;;;;;4.88;1.10;;;23.70;42.90;;;;;;5037809;28;20049;-88
2023/08/11 10:16:49;;;;;;;5.63;1.15;;;23.80;42.90;;;;;;5049658;28;20406;-89
2023/08/11 10:19:17;;;;;;;3.70;1.05;;;24.10;41.70;;;;;;5061325;28;20072;-88
2023/08/11 10:21:44;;;;;;;4.83;1.20;;;24.10;39.90;;;;;;5045357;28;20087;-88
2023/08/11 10:24:12;;;;;;;3.83;1.13;;;24.10;38.70;;;;;;5062931;28;20405;-88
2023/08/11 10:26:40;;;;;;;3.70;1.25;;;24.10;39.50;;;;;;5056519;28;20057;-88
2023/08/11 10:29:08;;;;;;;3.28;1.00;;;24.00;38.30;;;;;;5045874;28;20401;-88
2023/08/11 10:31:36;;;;;;;4.25;1.30;;;24.10;39.70;;;;;;5070119;28;20075;-88
2023/08/11 10:34:08;;;;;;;2.87;1.00;;;24.00;39.90;;;;;;5038351;28;20033;-89
2023/08/11 10:36:37;;;;;;;4.00;1.08;;;24.10;40.20;;;;;;5061616;28;20041;-87
2023/08/11 10:39:08;;;;;;;4.68;1.42;;;24.10;38.00;;;;;;5052348;28;20036;-88
2023/08/11 10:41:35;;;;;;;3.63;1.00;;;24.20;40.90;;;;;;5067415;28;20040;-88
2023/08/11 10:44:04;;;;;;;4.45;1.27;;;24.20;38.50;;;;;;5047104;28;20051;-89
2023/08/11 10:46:32;;;;;;;4.60;1.60;;;24.30;40.50;;;;;;5049796;28;20041;-88
2023/08/11 10:49:20;;;;;;;3.85;1.20;;;24.40;41.50;;;;;;5050805;28;20128;-88
2023/08/11 10:51:48;;;;;;;4.18;1.20;;;24.40;40.50;;;;;;5044367;28;20054;-88
2023/08/11 10:54:31;;;;;;;4.53;1.30;;;24.40;41.20;;;;;;5052902;28;20048;-88
2023/08/11 10:57:01;;;;;;;4.20;1.40;;;24.50;40.90;;;;;;5043444;28;20045;-89
2023/08/11 10:59:30;;;;;;;4.33;1.10;;;24.60;38.80;;;;;;5054300;28;20095;-88
2023/08/11 11:01:59;;;;;;;3.67;1.33;;;24.60;42.10;;;;;;5041945;28;20411;-88
2023/08/11 11:04:33;;;;;;;3.75;1.10;;;24.70;42.60;;;;;;5081516;28;20049;-88
2023/08/11 11:07:01;;;;;;;4.18;1.25;;;24.80;41.60;;;;;;5044645;28;20049;-88
2023/08/11 11:09:29;;;;;;;4.25;1.17;;;24.80;41.10;;;;;;5049084;28;20490;-88
2023/08/11 11:11:56;;;;;;;4.43;1.37;;;24.70;40.00;;;;;;5066220;28;20044;-88
2023/08/11 11:14:24;;;;;;;3.58;1.10;;;24.80;40.10;;;;;;5036297;28;20045;-88
2023/08/11 11:16:58;;;;;;;3.72;1.00;;;24.90;39.50;;;;;;5061359;28;20123;-88
2023/08/11 11:19:27;;;;;;;6.35;1.30;;;24.90;38.00;;;;;;5043744;28;20139;-88
2023/08/11 11:21:54;;;;;;;3.53;1.13;;;24.90;36.90;;;;;;5047317;28;20452;-89
2023/08/11 11:24:21;;;;;;;3.77;1.10;;;25.00;37.10;;;;;;5055054;28;20053;-89
2023/08/11 11:26:49;;;;;;;4.18;1.35;;;25.00;36.70;;;;;;5053933;28;20089;-88
2023/08/11 11:29:21;;;;;;;3.35;1.02;;;25.00;37.10;;;;;;5070731;28;20090;-88
2023/08/11 11:31:48;;;;;;;18.65;1.90;;;25.00;36.00;;;;;;5066144;28;20041;-88
2023/08/11 11:34:16;;;;;;;4.60;1.00;;;24.80;37.00;;;;;;5052082;28;20108;-88
2023/08/11 11:36:43;;;;;;;3.97;1.13;;;24.60;37.30;;;;;;5061910;28;20456;-88
2023/08/11 11:39:10;;;;;;;4.13;1.35;;;24.60;39.00;;;;;;5069099;28;20036;-87
2023/08/11 11:41:38;;;;;;;3.78;1.23;;;24.70;39.00;;;;;;5066444;28;20098;-88
2023/08/11 11:44:05;;;;;;;4.93;1.20;;;24.90;38.90;;;;;;5050458;28;20047;-88
2023/08/11 11:46:33;;;;;;;3.47;1.35;;;25.00;36.70;;;;;;5048558;28;20040;-89
2023/08/11 11:49:02;;;;;;;4.50;1.40;;;25.10;40.10;;;;;;5049520;28;20067;-88
2023/08/11 11:51:42;;;;;;;3.85;1.10;;;25.20;39.40;;;;;;5057275;28;20561;-88
2023/08/11 11:54:09;;;;;;;3.83;1.20;;;25.20;36.90;;;;;;5055257;28;20528;-88
2023/08/11 11:56:36;;;;;;;3.80;1.30;;;25.20;38.40;;;;;;5062166;28;20556;-88
2023/08/11 11:59:08;;;;;;;4.72;1.40;;;25.40;37.50;;;;;;5061611;28;20036;-89
2023/08/11 12:01:36;;;;;;;6.03;1.53;;;25.50;38.70;;;;;;5063176;28;20037;-88
2023/08/11 12:04:04;;;;;;;4.45;1.20;;;25.80;41.30;;;;;;5069700;28;20124;-88
2023/08/11 12:06:31;;;;;;;3.42;1.40;;;25.90;38.50;;;;;;5054400;28;20495;-88
2023/08/11 12:09:04;;;;;;;2.65;1.10;;;25.80;37.50;;;;;;5066147;28;20040;-88
2023/08/11 12:11:32;;;;;;;3.40;1.25;;;25.90;36.20;;;;;;5043724;28;20045;-88
2023/08/11 12:14:00;;;;;;;4.17;1.20;;;25.90;36.10;;;;;;5058296;28;20045;-88
2023/08/11 12:16:28;;;;;;;3.83;1.20;;;26.00;38.30;;;;;;5060332;28;20045;-88
2023/08/11 12:19:00;;;;;;;3.72;1.25;;;25.90;37.20;;;;;;5048785;28;20506;-88
2023/08/11 12:21:28;;;;;;;4.70;1.40;;;25.90;37.20;;;;;;5058404;28;20040;-88
2023/08/11 12:23:56;;;;;;;4.75;1.30;;;25.80;38.10;;;;;;5049248;28;20057;-88
2023/08/11 12:26:23;;;;;;;3.97;1.10;;;25.80;37.30;;;;;;5065890;28;20041;-88
2023/08/11 12:28:50;;;;;;;4.53;1.52;;;25.90;35.80;;;;;;5046422;28;20433;-88
2023/08/11 12:31:17;;;;;;;4.35;1.60;;;26.00;36.00;;;;;;5061685;28;20045;-88
2023/08/11 12:33:44;;;;;;;3.45;1.20;;;26.00;35.60;;;;;;5051721;28;20044;-88
2023/08/11 12:36:11;;;;;;;5.65;1.60;;;26.00;35.60;;;;;;5066060;28;20053;-89
2023/08/11 12:38:38;;;;;;;5.10;1.40;;;25.90;36.40;;;;;;5054362;28;20045;-88
2023/08/11 12:41:05;;;;;;;4.30;1.20;;;25.90;35.60;;;;;;5052605;28;20040;-88
2023/08/11 12:43:32;;;;;;;3.83;1.20;;;26.00;36.90;;;;;;5050827;28;20048;-88
2023/08/11 12:45:59;;;;;;;5.25;1.70;;;26.00;37.40;;;;;;5063778;28;20105;-88
2023/08/11 12:48:26;;;;;;;5.10;1.65;;;26.00;36.70;;;;;;5044768;28;20045;-88
2023/08/11 12:50:53;;;;;;;4.00;1.30;;;26.10;38.70;;;;;;5054026;28;20469;-88